Elk Grove Village, IL

3:34 PM CST en Noviembre 28, 2014 (GMT -0600)
Chicago-Midway | Change Station
CLOSE
Current Station
Aeropuerto
Location: Chicago Midway,
Altura: 623 ft
Estaciones meteorológicas cercanas

Alt 623 ft 41.78 °N, 87.76 °W | Updated 41 minutes ago

Nublado
Nublado
33 ° F
Sensación térmica 23 ° F
N
16
Viento Variable Viento desde Sur
Gusts 24 mph

Hoy
Alta -- | Baja -- ° F
--% Posibilidad de precipitaciones
Ayer
Alta -- | Baja -- ° F
Precip. -- pul
6:57 AM 4:22 PM
Creciente, 44% visible
Presión 30.05 pul
Visibilidad 10.0 Millas
Nubes Muy nublado 2400 ft
Nublado 12000 ft
Vientos helados 23 ° F
Punto de rocío 21 ° F
Humedad 61%
Precipitaciones 0.00 pul
Espesor de la nieve No disponible.
UV 0 de una escala de 12
Polen .10 de una escala de 12
Calidad del aire No disponible.
Flu Activity No disponible.
METAR KMDW 282053Z 17014G21KT 10SM BKN024 OVC120 01/M06 A3000 RMK AO2 SLP174 T00061061 56039 $

More Conditions Fewer Conditions

Presión 30.05 pul
Visibilidad 10.0 Millas
Nubes Muy nublado 2400 ft
Nublado 12000 ft
Vientos helados 23 ° F
Punto de rocío 21 ° F
Humedad 61%
Precipitaciones 0.00 pul
Espesor de la nieve No disponible.
UV 0 de una escala de 12
Polen .10 de una escala de 12
Calidad del aire No disponible.
Flu Activity No disponible.
METAR KMDW 282053Z 17014G21KT 10SM BKN024 OVC120 01/M06 A3000 RMK AO2 SLP174 T00061061 56039 $

More Conditions Fewer Conditions

10-Day Weather Forecast

Almanac

Astronomía

Nov. 28, 2014 Salida Puesta
Hora real
Crepúsculo civil
Crepúsculo náutico
Crepúsculo astronómico
Luna
Horas de luz
Horas de luz
Tomorrow will be .
, % of the Moon is Illuminated

Extremos de hoy

Máximos del estado Bajos del estado

Community

WunderPhotos

Upload Photos

1,774,310 ¡fotos cargadas!

WunderBlogs® & News

Nearby

Calidad del aire

  Calidad del aire Índice AQ Contaminante
Not available.

Grosos de nieve

Estación Profundido Altura

Actividad de terremotos

Ciudad Distance Mag. Tiempo y dato
Magnitud mínima muestra es 2,5.

Temperaturas de aguas costeras

Lugar Temperatura

Estaciones meteorológicas cercanas